sensor_id;sensor_type;location;lat;lon;timestamp;pressure;altitude;pressure_sealevel;temperature;humidity
43934;BME280;59081;42.706;23.306;2022-10-15T00:01:37;95396.00;;;10.84;74.92
43934;BME280;59081;42.706;23.306;2022-10-15T00:04:02;95404.53;;;10.73;75.72
43934;BME280;59081;42.706;23.306;2022-10-15T00:06:28;95415.25;;;11.00;75.23
43934;BME280;59081;42.706;23.306;2022-10-15T00:08:53;95472.22;;;11.35;75.52
43934;BME280;59081;42.706;23.306;2022-10-15T00:11:22;95407.94;;;10.93;75.92
43934;BME280;59081;42.706;23.306;2022-10-15T00:13:49;95372.06;;;10.64;76.04
43934;BME280;59081;42.706;23.306;2022-10-15T00:16:19;95504.66;;;11.44;76.07
43934;BME280;59081;42.706;23.306;2022-10-15T00:18:44;95363.97;;;10.57;75.65
43934;BME280;59081;42.706;23.306;2022-10-15T00:21:12;95491.72;;;11.57;75.80
43934;BME280;59081;42.706;23.306;2022-10-15T00:23:39;95457.72;;;11.31;75.95
43934;BME280;59081;42.706;23.306;2022-10-15T00:26:07;95436.22;;;11.10;76.42
43934;BME280;59081;42.706;23.306;2022-10-15T00:28:33;95332.16;;;10.40;76.76
43934;BME280;59081;42.706;23.306;2022-10-15T00:31:07;95416.63;;;10.92;77.17
43934;BME280;59081;42.706;23.306;2022-10-15T00:33:33;95390.47;;;10.84;76.93
43934;BME280;59081;42.706;23.306;2022-10-15T00:36:06;95486.72;;;11.52;76.85
43934;BME280;59081;42.706;23.306;2022-10-15T00:38:33;95374.13;;;10.76;77.46
43934;BME280;59081;42.706;23.306;2022-10-15T00:41:00;95482.31;;;11.55;76.82
43934;BME280;59081;42.706;23.306;2022-10-15T00:43:41;95282.78;;;10.17;77.00
43934;BME280;59081;42.706;23.306;2022-10-15T00:46:15;95332.16;;;10.56;77.05
43934;BME280;59081;42.706;23.306;2022-10-15T00:48:41;95312.03;;;10.43;77.32
43934;BME280;59081;42.706;23.306;2022-10-15T00:51:07;95460.16;;;11.29;77.56
43934;BME280;59081;42.706;23.306;2022-10-15T00:53:36;95351.56;;;10.81;76.91
43934;BME280;59081;42.706;23.306;2022-10-15T00:56:02;95336.19;;;10.68;77.74
43934;BME280;59081;42.706;23.306;2022-10-15T00:58:29;95371.00;;;10.91;77.95
43934;BME280;59081;42.706;23.306;2022-10-15T01:00:56;95464.06;;;11.44;78.28
43934;BME280;59081;42.706;23.306;2022-10-15T01:03:22;95395.44;;;11.05;77.86
43934;BME280;59081;42.706;23.306;2022-10-15T01:05:50;95394.91;;;10.94;78.42
43934;BME280;59081;42.706;23.306;2022-10-15T01:08:16;95396.97;;;11.06;78.02
43934;BME280;59081;42.706;23.306;2022-10-15T01:13:26;95473.06;;;11.32;79.87
43934;BME280;59081;42.706;23.306;2022-10-15T01:16:15;95324.69;;;10.40;79.38
43934;BME280;59081;42.706;23.306;2022-10-15T01:18:50;95466.88;;;11.28;80.04
43934;BME280;59081;42.706;23.306;2022-10-15T01:24:09;95473.03;;;11.48;79.44
43934;BME280;59081;42.706;23.306;2022-10-15T01:27:10;95460.69;;;11.53;79.60
43934;BME280;59081;42.706;23.306;2022-10-15T01:32:18;95472.94;;;11.52;79.51
43934;BME280;59081;42.706;23.306;2022-10-15T01:34:48;95471.03;;;11.49;79.54
43934;BME280;59081;42.706;23.306;2022-10-15T01:42:58;95345.25;;;10.36;81.98
43934;BME280;59081;42.706;23.306;2022-10-15T01:45:32;95405.66;;;10.59;82.46
43934;BME280;59081;42.706;23.306;2022-10-15T01:48:02;95407.53;;;10.78;82.60
43934;BME280;59081;42.706;23.306;2022-10-15T01:50:29;95467.22;;;11.30;81.80
43934;BME280;59081;42.706;23.306;2022-10-15T01:52:57;95387.91;;;10.60;82.97
43934;BME280;59081;42.706;23.306;2022-10-15T01:55:25;95327.88;;;10.23;82.86
43934;BME280;59081;42.706;23.306;2022-10-15T01:57:51;95323.13;;;10.23;82.78
43934;BME280;59081;42.706;23.306;2022-10-15T02:00:18;95365.97;;;10.57;82.38
43934;BME280;59081;42.706;23.306;2022-10-15T02:02:43;95403.91;;;10.81;82.50
43934;BME280;59081;42.706;23.306;2022-10-15T02:05:16;95357.28;;;10.58;82.54
43934;BME280;59081;42.706;23.306;2022-10-15T02:08:10;95362.47;;;10.56;82.84
43934;BME280;59081;42.706;23.306;2022-10-15T02:10:56;95371.59;;;10.53;82.85
43934;BME280;59081;42.706;23.306;2022-10-15T02:21:20;95365.56;;;10.42;83.48
43934;BME280;59081;42.706;23.306;2022-10-15T02:23:58;95471.16;;;11.00;83.90
43934;BME280;59081;42.706;23.306;2022-10-15T02:26:29;95372.78;;;10.52;83.25
43934;BME280;59081;42.706;23.306;2022-10-15T02:28:58;95367.09;;;10.43;83.50
43934;BME280;59081;42.706;23.306;2022-10-15T02:31:25;95387.06;;;10.47;84.01
43934;BME280;59081;42.706;23.306;2022-10-15T02:33:56;95476.38;;;11.11;83.83
43934;BME280;59081;42.706;23.306;2022-10-15T02:36:23;95423.81;;;10.89;83.03
43934;BME280;59081;42.706;23.306;2022-10-15T02:38:49;95405.31;;;10.73;82.83
43934;BME280;59081;42.706;23.306;2022-10-15T02:41:16;95398.34;;;10.69;83.27
43934;BME280;59081;42.706;23.306;2022-10-15T02:43:42;95392.75;;;10.72;83.07
43934;BME280;59081;42.706;23.306;2022-10-15T02:46:10;95404.84;;;10.75;83.14
43934;BME280;59081;42.706;23.306;2022-10-15T02:48:37;95363.22;;;10.40;83.42
43934;BME280;59081;42.706;23.306;2022-10-15T02:51:03;95354.53;;;10.42;83.44
43934;BME280;59081;42.706;23.306;2022-10-15T02:53:29;95349.97;;;10.52;83.17
43934;BME280;59081;42.706;23.306;2022-10-15T02:55:54;95370.34;;;10.70;82.85
43934;BME280;59081;42.706;23.306;2022-10-15T02:58:20;95402.84;;;10.92;82.50
43934;BME280;59081;42.706;23.306;2022-10-15T03:00:45;95404.59;;;10.86;82.95
43934;BME280;59081;42.706;23.306;2022-10-15T03:03:11;95360.28;;;10.64;82.23
43934;BME280;59081;42.706;23.306;2022-10-15T03:05:36;95325.47;;;10.25;82.87
43934;BME280;59081;42.706;23.306;2022-10-15T03:08:02;95371.38;;;10.60;83.00
43934;BME280;59081;42.706;23.306;2022-10-15T03:10:27;95424.63;;;11.02;82.74
43934;BME280;59081;42.706;23.306;2022-10-15T03:12:52;95383.97;;;10.61;82.89
43934;BME280;59081;42.706;23.306;2022-10-15T03:15:18;95324.09;;;10.33;82.91
43934;BME280;59081;42.706;23.306;2022-10-15T03:17:44;95355.72;;;10.57;83.17
43934;BME280;59081;42.706;23.306;2022-10-15T03:20:09;95460.75;;;11.37;82.78
43934;BME280;59081;42.706;23.306;2022-10-15T03:22:35;95351.34;;;10.60;82.35
43934;BME280;59081;42.706;23.306;2022-10-15T03:25:01;95332.00;;;10.47;82.18
43934;BME280;59081;42.706;23.306;2022-10-15T03:27:26;95335.03;;;10.36;82.97
43934;BME280;59081;42.706;23.306;2022-10-15T03:29:52;95294.31;;;10.11;82.66
43934;BME280;59081;42.706;23.306;2022-10-15T03:32:17;95342.31;;;10.27;83.23
43934;BME280;59081;42.706;23.306;2022-10-15T03:34:42;95374.84;;;10.48;83.29
43934;BME280;59081;42.706;23.306;2022-10-15T03:37:08;95354.03;;;10.47;82.91
43934;BME280;59081;42.706;23.306;2022-10-15T03:39:34;95368.19;;;10.62;82.43
43934;BME280;59081;42.706;23.306;2022-10-15T03:41:59;95373.78;;;10.58;82.90
43934;BME280;59081;42.706;23.306;2022-10-15T03:44:25;95338.56;;;10.37;83.50
43934;BME280;59081;42.706;23.306;2022-10-15T03:46:50;95393.41;;;10.76;82.84
43934;BME280;59081;42.706;23.306;2022-10-15T03:49:16;95404.78;;;10.78;83.08
43934;BME280;59081;42.706;23.306;2022-10-15T03:51:41;95326.59;;;10.27;83.05
43934;BME280;59081;42.706;23.306;2022-10-15T03:54:07;95320.31;;;10.27;82.96
43934;BME280;59081;42.706;23.306;2022-10-15T03:56:32;95453.53;;;11.10;83.02
43934;BME280;59081;42.706;23.306;2022-10-15T03:58:57;95385.94;;;10.44;83.55
43934;BME280;59081;42.706;23.306;2022-10-15T04:01:23;95406.69;;;10.65;83.10
43934;BME280;59081;42.706;23.306;2022-10-15T04:03:51;95376.22;;;10.56;83.26
43934;BME280;59081;42.706;23.306;2022-10-15T04:06:17;95421.13;;;10.86;83.15
43934;BME280;59081;42.706;23.306;2022-10-15T04:08:43;95425.25;;;10.77;83.19
43934;BME280;59081;42.706;23.306;2022-10-15T04:11:08;95493.75;;;11.40;82.54
43934;BME280;59081;42.706;23.306;2022-10-15T04:13:34;95360.03;;;10.58;82.30
43934;BME280;59081;42.706;23.306;2022-10-15T04:16:03;95422.06;;;10.95;82.28
43934;BME280;59081;42.706;23.306;2022-10-15T04:18:28;95364.94;;;10.67;82.27
43934;BME280;59081;42.706;23.306;2022-10-15T04:20:57;95295.09;;;10.12;81.74
43934;BME280;59081;42.706;23.306;2022-10-15T04:23:23;95406.69;;;10.65;82.73
43934;BME280;59081;42.706;23.306;2022-10-15T04:25:48;95353.53;;;11.10;97.42
43934;BME280;59081;42.706;23.306;2022-10-15T04:28:14;95406.09;;;11.32;83.14
43934;BME280;59081;42.706;23.306;2022-10-15T04:30:39;95359.78;;;10.98;80.66
43934;BME280;59081;42.706;23.306;2022-10-15T04:33:05;95336.91;;;10.85;80.61
43934;BME280;59081;42.706;23.306;2022-10-15T04:35:30;95413.59;;;11.31;80.74
43934;BME280;59081;42.706;23.306;2022-10-15T04:37:57;95362.75;;;10.91;80.80
43934;BME280;59081;42.706;23.306;2022-10-15T04:40:23;95380.28;;;10.97;80.84
43934;BME280;59081;42.706;23.306;2022-10-15T04:42:49;95443.94;;;11.31;81.44
43934;BME280;59081;42.706;23.306;2022-10-15T04:45:15;95353.63;;;10.77;81.67
43934;BME280;59081;42.706;23.306;2022-10-15T04:47:40;95414.59;;;11.25;nan
43934;BME280;59081;42.706;23.306;2022-10-15T04:50:06;95408.06;;;11.19;80.04
43934;BME280;59081;42.706;23.306;2022-10-15T04:52:33;95359.91;;;10.78;80.60
43934;BME280;59081;42.706;23.306;2022-10-15T04:54:59;95367.75;;;10.79;80.88
43934;BME280;59081;42.706;23.306;2022-10-15T04:57:24;95391.66;;;10.99;81.02
43934;BME280;59081;42.706;23.306;2022-10-15T04:59:51;95367.03;;;10.92;80.39
43934;BME280;59081;42.706;23.306;2022-10-15T05:02:17;95504.25;;;11.74;80.33
43934;BME280;59081;42.706;23.306;2022-10-15T05:04:43;95391.69;;;10.82;81.46
43934;BME280;59081;42.706;23.306;2022-10-15T05:07:08;95439.34;;;11.12;81.53
43934;BME280;59081;42.706;23.306;2022-10-15T05:09:34;95392.72;;;10.89;81.48
43934;BME280;59081;42.706;23.306;2022-10-15T05:11:59;95456.00;;;11.37;81.38
43934;BME280;59081;42.706;23.306;2022-10-15T05:14:25;95403.88;;;10.98;81.10
43934;BME280;59081;42.706;23.306;2022-10-15T05:16:51;95394.06;;;10.97;80.75
43934;BME280;59081;42.706;23.306;2022-10-15T05:19:16;95455.22;;;11.37;80.86
43934;BME280;59081;42.706;23.306;2022-10-15T05:21:42;95385.00;;;10.51;81.41
43934;BME280;59081;42.706;23.306;2022-10-15T05:24:08;95422.69;;;10.87;81.66
43934;BME280;59081;42.706;23.306;2022-10-15T05:26:34;95432.72;;;10.93;81.41
43934;BME280;59081;42.706;23.306;2022-10-15T05:29:00;95418.47;;;10.66;81.86
43934;BME280;59081;42.706;23.306;2022-10-15T05:31:28;95449.69;;;10.92;81.53
43934;BME280;59081;42.706;23.306;2022-10-15T05:33:54;95423.47;;;10.87;80.62
43934;BME280;59081;42.706;23.306;2022-10-15T05:36:25;95398.78;;;10.51;80.75
43934;BME280;59081;42.706;23.306;2022-10-15T05:38:56;95448.00;;;10.81;80.96
43934;BME280;59081;42.706;23.306;2022-10-15T05:41:21;95444.97;;;10.76;81.12
43934;BME280;59081;42.706;23.306;2022-10-15T05:43:51;95450.81;;;10.94;80.08
43934;BME280;59081;42.706;23.306;2022-10-15T05:46:18;95476.75;;;10.97;79.79
43934;BME280;59081;42.706;23.306;2022-10-15T05:48:50;95447.91;;;10.85;79.54
43934;BME280;59081;42.706;23.306;2022-10-15T05:51:16;95557.81;;;11.61;79.90
43934;BME280;59081;42.706;23.306;2022-10-15T05:53:42;95450.72;;;10.98;79.44
43934;BME280;59081;42.706;23.306;2022-10-15T05:56:10;95399.13;;;10.53;79.95
43934;BME280;59081;42.706;23.306;2022-10-15T05:58:36;95480.22;;;11.30;78.61
43934;BME280;59081;42.706;23.306;2022-10-15T06:01:05;95552.88;;;11.84;78.92
43934;BME280;59081;42.706;23.306;2022-10-15T06:03:31;95433.97;;;11.21;77.61
43934;BME280;59081;42.706;23.306;2022-10-15T06:05:57;95430.88;;;11.19;77.21
43934;BME280;59081;42.706;23.306;2022-10-15T06:08:22;95487.34;;;11.72;76.00
43934;BME280;59081;42.706;23.306;2022-10-15T06:10:48;95559.28;;;12.23;75.59
43934;BME280;59081;42.706;23.306;2022-10-15T06:13:15;95474.38;;;11.57;75.96
43934;BME280;59081;42.706;23.306;2022-10-15T06:15:42;95465.88;;;11.51;75.96
43934;BME280;59081;42.706;23.306;2022-10-15T06:18:09;95474.09;;;11.67;75.56
43934;BME280;59081;42.706;23.306;2022-10-15T06:20:35;95491.63;;;11.90;75.42
43934;BME280;59081;42.706;23.306;2022-10-15T06:23:02;95430.78;;;11.51;75.13
43934;BME280;59081;42.706;23.306;2022-10-15T06:25:28;95502.94;;;11.79;76.19
43934;BME280;59081;42.706;23.306;2022-10-15T06:27:54;95442.41;;;11.59;75.65
43934;BME280;59081;42.706;23.306;2022-10-15T06:30:20;95461.47;;;11.82;75.14
43934;BME280;59081;42.706;23.306;2022-10-15T06:32:47;95474.00;;;11.71;76.12
43934;BME280;59081;42.706;23.306;2022-10-15T06:35:12;95468.00;;;11.60;75.74
43934;BME280;59081;42.706;23.306;2022-10-15T06:37:38;95512.63;;;11.71;76.24
43934;BME280;59081;42.706;23.306;2022-10-15T06:40:03;95470.00;;;11.43;76.49
43934;BME280;59081;42.706;23.306;2022-10-15T06:42:29;95499.94;;;11.73;75.73
43934;BME280;59081;42.706;23.306;2022-10-15T06:44:54;95464.78;;;11.61;75.46
43934;BME280;59081;42.706;23.306;2022-10-15T06:47:20;95489.16;;;11.79;75.59
43934;BME280;59081;42.706;23.306;2022-10-15T06:49:45;95509.75;;;11.91;75.32
43934;BME280;59081;42.706;23.306;2022-10-15T06:52:11;95470.88;;;11.69;75.05
43934;BME280;59081;42.706;23.306;2022-10-15T06:54:36;95459.84;;;11.69;74.86
43934;BME280;59081;42.706;23.306;2022-10-15T06:57:01;95462.03;;;11.77;74.62
43934;BME280;59081;42.706;23.306;2022-10-15T06:59:27;95538.06;;;12.20;74.50
43934;BME280;59081;42.706;23.306;2022-10-15T07:01:52;95408.00;;;11.35;74.77
43934;BME280;59081;42.706;23.306;2022-10-15T07:04:18;95412.50;;;11.29;74.97
43934;BME280;59081;42.706;23.306;2022-10-15T07:06:44;95526.09;;;11.98;75.30
43934;BME280;59081;42.706;23.306;2022-10-15T07:09:09;95521.06;;;11.80;75.11
43934;BME280;59081;42.706;23.306;2022-10-15T07:11:35;95518.56;;;11.69;75.63
43934;BME280;59081;42.706;23.306;2022-10-15T07:14:00;95496.34;;;11.60;75.30
43934;BME280;59081;42.706;23.306;2022-10-15T07:16:26;95492.88;;;11.72;74.54
43934;BME280;59081;42.706;23.306;2022-10-15T07:18:52;95605.69;;;12.70;73.53
43934;BME280;59081;42.706;23.306;2022-10-15T07:21:17;95568.44;;;12.62;72.71
43934;BME280;59081;42.706;23.306;2022-10-15T07:23:43;95505.28;;;12.47;72.11
43934;BME280;59081;42.706;23.306;2022-10-15T07:26:08;95502.88;;;12.62;71.51
43934;BME280;59081;42.706;23.306;2022-10-15T07:28:34;95521.00;;;12.76;70.90
43934;BME280;59081;42.706;23.306;2022-10-15T07:31:03;95603.72;;;13.46;70.58
43934;BME280;59081;42.706;23.306;2022-10-15T07:33:30;95584.47;;;13.77;68.55
43934;BME280;59081;42.706;23.306;2022-10-15T07:35:55;95477.63;;;12.85;66.50
43934;BME280;59081;42.706;23.306;2022-10-15T07:38:21;95496.00;;;12.92;67.23
43934;BME280;59081;42.706;23.306;2022-10-15T07:40:46;95473.44;;;12.94;66.86
43934;BME280;59081;42.706;23.306;2022-10-15T07:43:12;95490.31;;;13.08;65.87
43934;BME280;59081;42.706;23.306;2022-10-15T07:45:37;95520.53;;;13.03;66.04
43934;BME280;59081;42.706;23.306;2022-10-15T07:48:04;95510.94;;;12.69;67.74
43934;BME280;59081;42.706;23.306;2022-10-15T07:50:29;95567.09;;;13.17;67.49
43934;BME280;59081;42.706;23.306;2022-10-15T07:52:55;95475.88;;;12.66;67.08
43934;BME280;59081;42.706;23.306;2022-10-15T07:55:20;95528.25;;;13.08;65.74
43934;BME280;59081;42.706;23.306;2022-10-15T07:57:46;95516.22;;;13.14;65.44
43934;BME280;59081;42.706;23.306;2022-10-15T08:00:11;95430.66;;;12.73;64.99
43934;BME280;59081;42.706;23.306;2022-10-15T08:02:37;95596.47;;;13.96;64.93
43934;BME280;59081;42.706;23.306;2022-10-15T08:05:02;95494.75;;;13.18;63.40
43934;BME280;59081;42.706;23.306;2022-10-15T08:07:28;95543.50;;;13.72;63.46
43934;BME280;59081;42.706;23.306;2022-10-15T08:09:53;95475.72;;;13.20;63.43
43934;BME280;59081;42.706;23.306;2022-10-15T08:12:19;95485.63;;;13.65;62.79
43934;BME280;59081;42.706;23.306;2022-10-15T08:14:45;95553.34;;;14.51;61.04
43934;BME280;59081;42.706;23.306;2022-10-15T08:17:11;95527.38;;;14.67;58.90
43934;BME280;59081;42.706;23.306;2022-10-15T08:19:36;95454.59;;;14.45;57.01
43934;BME280;59081;42.706;23.306;2022-10-15T08:22:02;95454.47;;;14.26;57.48
43934;BME280;59081;42.706;23.306;2022-10-15T08:24:28;95486.00;;;14.82;56.59
43934;BME280;59081;42.706;23.306;2022-10-15T08:26:56;95479.53;;;14.85;56.07
43934;BME280;59081;42.706;23.306;2022-10-15T08:29:22;95551.00;;;15.21;56.01
43934;BME280;59081;42.706;23.306;2022-10-15T08:31:48;95494.88;;;15.26;54.71
43934;BME280;59081;42.706;23.306;2022-10-15T08:34:13;95531.38;;;15.83;53.80
43934;BME280;59081;42.706;23.306;2022-10-15T08:36:39;95543.88;;;15.78;53.67
43934;BME280;59081;42.706;23.306;2022-10-15T08:39:04;95519.56;;;15.42;55.05
43934;BME280;59081;42.706;23.306;2022-10-15T08:41:41;95456.97;;;15.23;54.53
43934;BME280;59081;42.706;23.306;2022-10-15T08:44:20;95476.75;;;15.61;54.39
43934;BME280;59081;42.706;23.306;2022-10-15T08:46:50;95513.28;;;16.24;52.52
43934;BME280;59081;42.706;23.306;2022-10-15T08:51:53;95465.47;;;15.83;51.72
43934;BME280;59081;42.706;23.306;2022-10-15T08:54:19;95480.56;;;15.46;53.03
43934;BME280;59081;42.706;23.306;2022-10-15T08:57:01;95530.91;;;15.84;53.63
43934;BME280;59081;42.706;23.306;2022-10-15T09:00:30;95586.91;;;16.47;51.57
43934;BME280;59081;42.706;23.306;2022-10-15T09:06:22;95585.31;;;16.82;51.35
43934;BME280;59081;42.706;23.306;2022-10-15T09:09:21;95584.91;;;16.38;51.45
43934;BME280;59081;42.706;23.306;2022-10-15T09:14:35;95566.81;;;16.52;50.87
43934;BME280;59081;42.706;23.306;2022-10-15T09:19:48;95523.28;;;16.40;51.06
43934;BME280;59081;42.706;23.306;2022-10-15T09:22:17;95499.13;;;16.64;50.39
43934;BME280;59081;42.706;23.306;2022-10-15T09:24:43;95518.81;;;17.26;48.30
43934;BME280;59081;42.706;23.306;2022-10-15T09:27:20;95518.63;;;17.54;47.26
43934;BME280;59081;42.706;23.306;2022-10-15T09:29:58;95574.03;;;18.23;46.15
43934;BME280;59081;42.706;23.306;2022-10-15T09:32:34;95569.44;;;18.50;44.69
43934;BME280;59081;42.706;23.306;2022-10-15T09:40:38;95572.38;;;18.85;43.40
43934;BME280;59081;42.706;23.306;2022-10-15T09:43:09;95548.88;;;18.76;42.84
43934;BME280;59081;42.706;23.306;2022-10-15T09:45:36;95431.34;;;17.95;42.83
43934;BME280;59081;42.706;23.306;2022-10-15T09:48:18;95502.78;;;18.22;43.95
43934;BME280;59081;42.706;23.306;2022-10-15T09:56:12;95572.25;;;19.58;42.35
43934;BME280;59081;42.706;23.306;2022-10-15T09:58:47;95488.53;;;19.49;41.22
43934;BME280;59081;42.706;23.306;2022-10-15T10:01:32;95442.13;;;19.72;39.44
43934;BME280;59081;42.706;23.306;2022-10-15T10:04:12;95503.91;;;20.20;38.34
43934;BME280;59081;42.706;23.306;2022-10-15T10:06:49;95487.53;;;20.13;38.54
43934;BME280;59081;42.706;23.306;2022-10-15T10:09:21;95479.47;;;20.41;37.84
43934;BME280;59081;42.706;23.306;2022-10-15T10:11:57;95549.97;;;21.34;36.91
43934;BME280;59081;42.706;23.306;2022-10-15T10:14:33;95519.75;;;21.49;37.31
43934;BME280;59081;42.706;23.306;2022-10-15T10:17:13;95557.31;;;22.11;35.69
43934;BME280;59081;42.706;23.306;2022-10-15T10:19:41;95562.69;;;22.20;35.90
43934;BME280;59081;42.706;23.306;2022-10-15T10:22:19;95562.78;;;21.88;35.26
43934;BME280;59081;42.706;23.306;2022-10-15T10:24:46;95458.06;;;21.43;34.99
43934;BME280;59081;42.706;23.306;2022-10-15T10:27:21;95462.22;;;21.59;34.43
43934;BME280;59081;42.706;23.306;2022-10-15T10:29:51;95430.63;;;21.59;34.48
43934;BME280;59081;42.706;23.306;2022-10-15T10:32:25;95446.50;;;21.25;35.74
43934;BME280;59081;42.706;23.306;2022-10-15T10:34:52;95476.44;;;21.50;35.24
43934;BME280;59081;42.706;23.306;2022-10-15T10:37:18;95465.03;;;21.59;35.38
43934;BME280;59081;42.706;23.306;2022-10-15T10:39:44;95493.06;;;21.65;34.97
43934;BME280;59081;42.706;23.306;2022-10-15T10:44:42;95458.56;;;21.42;34.78
43934;BME280;59081;42.706;23.306;2022-10-15T10:47:16;95465.50;;;21.52;34.75
43934;BME280;59081;42.706;23.306;2022-10-15T10:49:54;95547.16;;;22.25;34.59
43934;BME280;59081;42.706;23.306;2022-10-15T10:52:35;95539.56;;;22.47;34.13
43934;BME280;59081;42.706;23.306;2022-10-15T10:55:19;95522.44;;;22.40;33.10
43934;BME280;59081;42.706;23.306;2022-10-15T10:57:52;95543.66;;;21.87;33.74
43934;BME280;59081;42.706;23.306;2022-10-15T11:02:52;95495.56;;;21.14;34.71
43934;BME280;59081;42.706;23.306;2022-10-15T11:05:24;95467.41;;;20.92;35.43
43934;BME280;59081;42.706;23.306;2022-10-15T11:08:31;95475.00;;;20.86;35.37
43934;BME280;59081;42.706;23.306;2022-10-15T11:11:38;95490.66;;;21.04;35.01
43934;BME280;59081;42.706;23.306;2022-10-15T11:23:07;95538.16;;;20.61;36.73
43934;BME280;59081;42.706;23.306;2022-10-15T11:25:58;95541.78;;;20.67;36.03
43934;BME280;59081;42.706;23.306;2022-10-15T11:28:53;95476.44;;;19.72;37.13
43934;BME280;59081;42.706;23.306;2022-10-15T11:31:46;95422.91;;;19.59;37.08
43934;BME280;59081;42.706;23.306;2022-10-15T11:45:15;95525.88;;;19.87;37.42
43934;BME280;59081;42.706;23.306;2022-10-15T11:48:04;95460.63;;;19.69;36.61
43934;BME280;59081;42.706;23.306;2022-10-15T11:58:42;95453.00;;;19.70;36.12
43934;BME280;59081;42.706;23.306;2022-10-15T12:01:27;95522.25;;;20.01;36.75
43934;BME280;59081;42.706;23.306;2022-10-15T12:03:58;95461.88;;;19.68;36.87
43934;BME280;59081;42.706;23.306;2022-10-15T12:06:29;95525.41;;;20.86;35.17
43934;BME280;59081;42.706;23.306;2022-10-15T12:08:56;95474.84;;;21.01;34.58
43934;BME280;59081;42.706;23.306;2022-10-15T12:11:45;95524.59;;;21.11;34.82
43934;BME280;59081;42.706;23.306;2022-10-15T12:19:40;95486.97;;;18.93;38.15
43934;BME280;59081;42.706;23.306;2022-10-15T12:22:10;95464.81;;;18.69;38.95
43934;BME280;59081;42.706;23.306;2022-10-15T12:27:32;95477.84;;;18.04;40.16
43934;BME280;59081;42.706;23.306;2022-10-15T12:32:25;95538.81;;;17.72;42.16
43934;BME280;59081;42.706;23.306;2022-10-15T12:35:02;95451.78;;;17.54;41.31
43934;BME280;59081;42.706;23.306;2022-10-15T12:37:32;95488.03;;;17.92;41.51
43934;BME280;59081;42.706;23.306;2022-10-15T12:40:04;95456.16;;;17.69;41.17
43934;BME280;59081;42.706;23.306;2022-10-15T12:42:36;95518.06;;;18.12;41.41
43934;BME280;59081;42.706;23.306;2022-10-15T12:45:06;95521.06;;;17.85;42.22
43934;BME280;59081;42.706;23.306;2022-10-15T12:47:54;95522.19;;;18.17;41.56
43934;BME280;59081;42.706;23.306;2022-10-15T12:50:24;95526.19;;;18.69;40.84
43934;BME280;59081;42.706;23.306;2022-10-15T12:53:03;95516.34;;;18.88;40.37
43934;BME280;59081;42.706;23.306;2022-10-15T12:55:33;95484.00;;;18.96;39.73
43934;BME280;59081;42.706;23.306;2022-10-15T12:58:01;95437.69;;;19.04;39.23
43934;BME280;59081;42.706;23.306;2022-10-15T13:00:34;95524.28;;;19.45;40.04
43934;BME280;59081;42.706;23.306;2022-10-15T13:03:16;95517.34;;;19.96;39.03
43934;BME280;59081;42.706;23.306;2022-10-15T13:05:43;95465.47;;;19.95;37.43
43934;BME280;59081;42.706;23.306;2022-10-15T13:08:18;95517.53;;;20.59;37.21
43934;BME280;59081;42.706;23.306;2022-10-15T13:10:49;95454.59;;;19.76;37.70
43934;BME280;59081;42.706;23.306;2022-10-15T13:13:34;95418.66;;;20.15;36.85
43934;BME280;59081;42.706;23.306;2022-10-15T13:16:07;95465.94;;;20.65;35.88
43934;BME280;59081;42.706;23.306;2022-10-15T13:18:34;95411.19;;;20.33;36.35
43934;BME280;59081;42.706;23.306;2022-10-15T13:21:00;95385.84;;;19.85;36.74
43934;BME280;59081;42.706;23.306;2022-10-15T13:23:32;95416.00;;;20.58;36.30
43934;BME280;59081;42.706;23.306;2022-10-15T13:29:02;95427.66;;;19.73;37.33
43934;BME280;59081;42.706;23.306;2022-10-15T13:31:29;95502.97;;;19.62;38.65
43934;BME280;59081;42.706;23.306;2022-10-15T13:34:09;95385.88;;;18.83;38.84
43934;BME280;59081;42.706;23.306;2022-10-15T13:36:38;95414.38;;;19.48;38.01
43934;BME280;59081;42.706;23.306;2022-10-15T13:41:46;95455.19;;;19.25;37.70
43934;BME280;59081;42.706;23.306;2022-10-15T13:44:22;95459.09;;;18.78;38.95
43934;BME280;59081;42.706;23.306;2022-10-15T13:46:48;95365.97;;;18.11;39.62
43934;BME280;59081;42.706;23.306;2022-10-15T13:49:14;95435.44;;;19.08;38.59
43934;BME280;59081;42.706;23.306;2022-10-15T13:51:42;95400.69;;;18.74;38.46
43934;BME280;59081;42.706;23.306;2022-10-15T13:54:20;95447.69;;;19.31;38.19
43934;BME280;59081;42.706;23.306;2022-10-15T13:57:00;95442.59;;;18.95;38.34
43934;BME280;59081;42.706;23.306;2022-10-15T13:59:29;95498.72;;;19.32;38.31
43934;BME280;59081;42.706;23.306;2022-10-15T14:02:02;95456.53;;;19.30;38.01
43934;BME280;59081;42.706;23.306;2022-10-15T14:04:30;95360.97;;;18.15;38.43
43934;BME280;59081;42.706;23.306;2022-10-15T14:07:20;95497.13;;;18.46;40.00
43934;BME280;59081;42.706;23.306;2022-10-15T14:09:57;95491.13;;;18.09;41.22
43934;BME280;59081;42.706;23.306;2022-10-15T14:12:36;95477.94;;;17.95;41.54
43934;BME280;59081;42.706;23.306;2022-10-15T14:18:37;95505.19;;;17.28;43.62
43934;BME280;59081;42.706;23.306;2022-10-15T14:21:09;95411.47;;;16.35;43.83
43934;BME280;59081;42.706;23.306;2022-10-15T14:23:36;95381.19;;;16.38;44.01
43934;BME280;59081;42.706;23.306;2022-10-15T14:26:03;95399.78;;;16.22;44.55
43934;BME280;59081;42.706;23.306;2022-10-15T14:28:31;95389.09;;;15.88;45.54
43934;BME280;59081;42.706;23.306;2022-10-15T14:30:59;95372.00;;;15.71;45.25
43934;BME280;59081;42.706;23.306;2022-10-15T14:38:29;95407.31;;;15.80;45.55
43934;BME280;59081;42.706;23.306;2022-10-15T14:40:59;95395.41;;;15.88;45.44
43934;BME280;59081;42.706;23.306;2022-10-15T14:46:16;95506.28;;;16.47;46.44
43934;BME280;59081;42.706;23.306;2022-10-15T14:48:43;95445.88;;;15.78;47.05